createdAt,value
2023-03-05T00:00:08.457Z,97655.00
2023-03-05T00:02:41.817Z,97672.00
2023-03-05T00:05:11.654Z,97659.00
2023-03-05T00:07:39.955Z,97653.00
2023-03-05T00:10:09.768Z,97667.00
2023-03-05T00:12:39.463Z,97662.00
2023-03-05T00:15:10.090Z,97674.00
2023-03-05T00:17:38.360Z,97662.00
2023-03-05T00:20:08.108Z,97659.00
2023-03-05T00:22:36.601Z,97667.00
2023-03-05T00:25:06.421Z,97659.00
2023-03-05T00:27:34.605Z,97645.00
2023-03-05T00:30:05.642Z,97648.00
2023-03-05T00:32:33.906Z,97654.00
2023-03-05T00:35:02.110Z,97653.00
2023-03-05T00:37:30.275Z,97641.00
2023-03-05T00:39:59.167Z,97642.00
2023-03-05T00:42:27.404Z,97628.00
2023-03-05T00:44:55.744Z,97634.00
2023-03-05T00:47:25.283Z,97644.00
2023-03-05T00:49:54.327Z,97628.00
2023-03-05T00:52:22.542Z,97635.00
2023-03-05T00:54:50.779Z,97630.00
2023-03-05T00:57:18.982Z,97640.00
2023-03-05T00:59:47.380Z,97626.00
2023-03-05T01:02:15.972Z,97630.00
2023-03-05T01:04:47.249Z,97618.00
2023-03-05T01:07:15.560Z,97628.00
2023-03-05T01:09:43.787Z,97627.00
2023-03-05T01:12:12.037Z,97613.00
2023-03-05T01:14:40.367Z,97624.00
2023-03-05T01:17:09.633Z,97613.00
2023-03-05T01:19:39.443Z,97607.00
2023-03-05T01:22:09.022Z,97608.00
2023-03-05T01:24:37.204Z,97605.00
2023-03-05T01:27:05.802Z,97613.00
2023-03-05T01:29:34.038Z,97617.00
2023-03-05T01:32:02.748Z,97599.00
2023-03-05T01:34:30.961Z,97615.00
2023-03-05T01:36:59.216Z,97597.00
2023-03-05T01:39:28.838Z,97594.00
2023-03-05T01:41:57.148Z,97595.00
2023-03-05T01:44:28.652Z,97595.00
2023-03-05T01:46:57.400Z,97592.00
2023-03-05T01:49:28.762Z,97588.00
2023-03-05T01:52:05.887Z,97593.00
2023-03-05T01:54:41.423Z,97595.00
2023-03-05T01:57:16.643Z,97585.00
2023-03-05T01:59:50.854Z,97596.00
2023-03-05T02:02:21.969Z,97586.00
2023-03-05T02:04:56.534Z,97575.00
2023-03-05T02:07:25.994Z,97580.00
2023-03-05T02:09:55.587Z,97588.00
2023-03-05T02:12:24.775Z,97568.00
2023-03-05T02:14:59.289Z,97572.00
2023-03-05T02:17:29.589Z,97561.00
2023-03-05T02:20:06.795Z,97574.00
2023-03-05T02:22:36.385Z,97559.00
2023-03-05T02:25:16.458Z,97570.00
2023-03-05T02:27:54.715Z,97557.00
2023-03-05T02:30:25.416Z,97547.00
2023-03-05T02:32:53.794Z,97556.00
2023-03-05T02:35:23.223Z,97547.00
2023-03-05T02:37:52.793Z,97556.00
2023-03-05T02:40:21.388Z,97564.00
2023-03-05T02:42:49.653Z,97561.00
2023-03-05T02:45:18.165Z,97544.00
2023-03-05T02:47:46.672Z,97542.00
2023-03-05T02:50:15.173Z,97538.00
2023-03-05T02:52:43.468Z,97546.00
2023-03-05T02:55:17.481Z,97538.00
2023-03-05T02:57:46.133Z,97533.00
2023-03-05T03:00:15.803Z,97524.00
2023-03-05T03:02:44.094Z,97528.00
2023-03-05T03:05:12.335Z,97528.00
2023-03-05T03:07:40.617Z,97523.00
2023-03-05T03:10:10.688Z,97520.00
2023-03-05T03:12:41.408Z,97498.00
2023-03-05T03:15:13.526Z,97515.00
2023-03-05T03:17:41.892Z,97499.00
2023-03-05T03:20:15.175Z,97511.00
2023-03-05T03:22:45.674Z,97503.00
2023-03-05T03:25:18.020Z,97504.00
2023-03-05T03:27:47.747Z,97521.00
2023-03-05T03:30:17.211Z,97510.00
2023-03-05T03:32:45.757Z,97504.00
2023-03-05T03:35:14.855Z,97516.00
2023-03-05T03:37:43.088Z,97495.00
2023-03-05T03:40:13.770Z,97492.00
2023-03-05T03:42:42.032Z,97496.00
2023-03-05T03:45:13.545Z,97515.00
2023-03-05T03:47:41.812Z,97505.00
2023-03-05T03:50:11.886Z,97520.00
2023-03-05T03:52:40.114Z,97497.00
2023-03-05T03:55:09.670Z,97505.00
2023-03-05T03:57:38.224Z,97487.00
2023-03-05T04:00:08.680Z,97483.00
2023-03-05T04:02:41.879Z,97493.00
2023-03-05T04:05:10.862Z,97487.00
2023-03-05T04:07:39.024Z,97480.00
2023-03-05T04:10:08.832Z,97479.00
2023-03-05T04:12:37.031Z,97478.00
2023-03-05T04:15:07.956Z,97487.00
2023-03-05T04:17:36.250Z,97485.00
2023-03-05T04:20:09.678Z,97476.00
2023-03-05T04:22:38.950Z,97476.00
2023-03-05T04:25:10.261Z,97484.00
2023-03-05T04:27:40.285Z,97480.00
2023-03-05T04:30:12.597Z,97474.00
2023-03-05T04:32:43.845Z,97471.00
2023-03-05T04:35:13.455Z,97468.00
2023-03-05T04:37:41.887Z,97474.00
2023-03-05T04:40:12.246Z,97461.00
2023-03-05T04:42:40.516Z,97480.00
2023-03-05T04:45:10.704Z,97455.00
2023-03-05T04:47:39.492Z,97456.00
2023-03-05T04:50:14.003Z,97460.00
2023-03-05T04:52:45.083Z,97460.00
2023-03-05T04:55:15.916Z,97452.00
2023-03-05T04:57:44.599Z,97454.00
2023-03-05T05:00:16.793Z,97458.00
2023-03-05T05:02:47.774Z,97455.00
2023-03-05T05:05:20.590Z,97454.00
2023-03-05T05:07:48.751Z,97450.00
2023-03-05T05:10:18.312Z,97446.00
2023-03-05T05:12:46.606Z,97447.00
2023-03-05T05:15:15.286Z,97452.00
2023-03-05T05:17:43.572Z,97443.00
2023-03-05T05:20:15.248Z,97437.00
2023-03-05T05:22:45.403Z,97432.00
2023-03-05T05:25:13.713Z,97452.00
2023-03-05T05:27:42.277Z,97453.00
2023-03-05T05:30:12.437Z,97445.00
2023-03-05T05:32:40.882Z,97450.00
2023-03-05T05:35:11.108Z,97440.00
2023-03-05T05:37:39.397Z,97436.00
2023-03-05T05:40:11.384Z,97438.00
2023-03-05T05:42:39.625Z,97450.00
2023-03-05T05:45:09.991Z,97442.00
2023-03-05T05:47:38.286Z,97437.00
2023-03-05T05:50:08.739Z,97441.00
2023-03-05T05:52:36.956Z,97440.00
2023-03-05T05:55:06.787Z,97437.00
2023-03-05T05:57:36.975Z,97449.00
2023-03-05T06:00:11.214Z,97453.00
2023-03-05T06:02:44.198Z,97458.00
2023-03-05T06:05:15.928Z,97458.00
2023-03-05T06:07:44.251Z,97438.00
2023-03-05T06:10:13.319Z,97446.00
2023-03-05T06:12:42.872Z,97445.00
2023-03-05T06:15:11.739Z,97450.00
2023-03-05T06:17:40.075Z,97448.00
2023-03-05T06:20:10.383Z,97450.00
2023-03-05T06:22:39.430Z,97450.00
2023-03-05T06:25:10.133Z,97464.00
2023-03-05T06:27:39.238Z,97443.00
2023-03-05T06:30:12.365Z,97468.00
2023-03-05T06:32:40.768Z,97450.00
2023-03-05T06:35:10.083Z,97449.00
2023-03-05T06:37:38.263Z,97451.00
2023-03-05T06:40:08.197Z,97448.00
2023-03-05T06:42:37.093Z,97444.00
2023-03-05T06:45:06.700Z,97449.00
2023-03-05T06:47:36.272Z,97443.00
2023-03-05T06:54:36.714Z,97438.00
2023-03-05T06:57:05.177Z,97444.00
2023-03-05T06:59:34.585Z,97437.00
2023-03-05T07:02:02.817Z,97451.00
2023-03-05T07:04:32.460Z,97442.00
2023-03-05T07:07:01.017Z,97444.00
2023-03-05T07:09:30.660Z,97447.00
2023-03-05T07:11:58.931Z,97441.00
2023-03-05T07:14:27.108Z,97445.00
2023-03-05T07:16:55.302Z,97438.00
2023-03-05T07:19:23.518Z,97430.00
2023-03-05T07:21:53.074Z,97440.00
2023-03-05T07:24:21.241Z,97429.00
2023-03-05T07:26:49.429Z,97433.00
2023-03-05T07:29:17.590Z,97441.00
2023-03-05T07:31:45.853Z,97437.00
2023-03-05T07:34:14.043Z,97435.00
2023-03-05T07:36:43.023Z,97431.00
2023-03-05T07:39:13.775Z,97439.00
2023-03-05T07:41:42.056Z,97433.00
2023-03-05T07:44:11.385Z,97424.00
2023-03-05T07:46:40.174Z,97421.00
2023-03-05T07:49:08.510Z,97430.00
2023-03-05T07:51:37.123Z,97423.00
2023-03-05T07:54:05.686Z,97426.00
2023-03-05T07:56:37.059Z,97427.00
2023-03-05T07:59:09.477Z,97431.00
2023-03-05T08:01:39.666Z,97416.00
2023-03-05T08:04:10.599Z,97420.00
2023-03-05T08:06:41.802Z,97439.00
2023-03-05T08:09:10.064Z,97415.00
2023-03-05T08:11:40.845Z,97404.00
2023-03-05T08:14:09.739Z,97423.00
2023-03-05T08:16:39.564Z,97412.00
2023-03-05T08:19:08.289Z,97400.00
2023-03-05T08:21:37.896Z,97401.00
2023-03-05T08:27:17.935Z,97414.00
2023-03-05T08:29:46.142Z,97412.00
2023-03-05T08:32:14.415Z,97397.00
2023-03-05T08:34:42.617Z,97406.00
2023-03-05T08:37:10.876Z,97407.00
2023-03-05T08:39:39.101Z,97409.00
2023-03-05T08:42:09.095Z,97411.00
2023-03-05T08:44:38.688Z,97396.00
2023-03-05T08:47:07.271Z,97399.00
2023-03-05T08:49:35.471Z,97389.00
2023-03-05T08:52:03.828Z,97404.00
2023-03-05T08:54:35.254Z,97403.00
2023-03-05T08:57:06.283Z,97394.00
2023-03-05T08:59:34.497Z,97397.00
2023-03-05T09:02:04.844Z,97397.00
2023-03-05T09:04:33.171Z,97393.00
2023-03-05T09:07:01.472Z,97387.00
2023-03-05T09:09:32.482Z,97385.00
2023-03-05T09:12:00.901Z,97397.00
2023-03-05T09:14:29.928Z,97386.00
2023-03-05T09:16:59.368Z,97405.00
2023-03-05T09:19:29.311Z,97397.00
2023-03-05T09:21:57.568Z,97380.00
2023-03-05T09:24:26.067Z,97381.00
2023-03-05T09:26:54.314Z,97384.00
2023-03-05T09:29:22.516Z,97391.00
2023-03-05T09:31:52.853Z,97387.00
2023-03-05T09:34:21.430Z,97373.00
2023-03-05T09:36:51.128Z,97375.00
2023-03-05T09:39:19.777Z,97387.00
2023-03-05T09:42:29.205Z,97370.00
2023-03-05T09:45:18.181Z,97384.00
2023-03-05T09:47:56.808Z,97372.00
2023-03-05T09:50:37.201Z,97374.00
2023-03-05T09:53:18.867Z,97377.00
2023-03-05T09:55:51.626Z,97367.00
2023-03-05T09:58:32.102Z,97370.00
2023-03-05T10:01:06.109Z,97367.00
2023-03-05T10:03:57.938Z,97367.00
2023-03-05T10:06:31.209Z,97371.00
2023-03-05T10:09:13.447Z,97377.00
2023-03-05T10:11:51.862Z,97374.00
2023-03-05T10:14:28.862Z,97375.00
2023-03-05T10:17:55.157Z,97364.00
2023-03-05T10:20:58.074Z,97378.00
2023-03-05T10:23:57.225Z,97368.00
2023-03-05T10:26:45.213Z,97379.00
2023-03-05T10:29:43.920Z,97360.00
2023-03-05T10:32:28.894Z,97356.00
2023-03-05T10:36:05.158Z,97365.00
2023-03-05T10:39:55.403Z,97358.00
2023-03-05T10:42:43.515Z,97352.00
2023-03-05T10:45:35.333Z,97345.00
2023-03-05T10:48:12.475Z,97358.00
2023-03-05T10:50:46.088Z,97343.00
2023-03-05T10:53:24.711Z,97350.00
2023-03-05T10:55:56.242Z,97359.00
2023-03-05T10:58:26.489Z,97349.00
2023-03-05T11:01:05.707Z,97351.00
2023-03-05T11:03:55.769Z,97326.00
2023-03-05T11:06:40.303Z,97335.00
2023-03-05T11:09:21.297Z,97334.00
2023-03-05T11:12:22.299Z,97324.00
2023-03-05T11:15:22.655Z,97330.00
2023-03-05T11:18:09.022Z,97309.00
2023-03-05T11:20:39.887Z,97309.00
2023-03-05T11:23:14.948Z,97304.00
2023-03-05T11:26:02.361Z,97309.00
2023-03-05T11:28:35.962Z,97305.00
2023-03-05T11:31:21.627Z,97290.00
2023-03-05T11:34:03.247Z,97301.00
2023-03-05T11:36:35.786Z,97292.00
2023-03-05T11:39:16.515Z,97295.00
2023-03-05T11:41:49.907Z,97296.00
2023-03-05T11:44:23.676Z,97297.00
2023-03-05T11:46:59.676Z,97277.00
2023-03-05T11:49:32.500Z,97273.00
2023-03-05T11:52:10.754Z,97256.00
2023-03-05T11:54:53.075Z,97272.00
2023-03-05T11:57:25.864Z,97260.00
2023-03-05T11:59:57.284Z,97266.00
2023-03-05T12:02:29.041Z,97270.00
2023-03-05T12:04:59.505Z,97264.00
2023-03-05T12:07:36.568Z,97255.00
2023-03-05T12:10:15.426Z,97257.00
2023-03-05T12:12:56.157Z,97259.00
2023-03-05T12:15:41.829Z,97243.00
2023-03-05T12:18:38.645Z,97240.00
2023-03-05T12:21:18.154Z,97240.00
2023-03-05T12:23:55.443Z,97256.00
2023-03-05T12:27:07.188Z,97240.00
2023-03-05T12:29:43.613Z,97224.00
2023-03-05T12:33:01.701Z,97215.00
2023-03-05T12:35:37.320Z,97208.00
2023-03-05T12:38:31.555Z,97203.00
2023-03-05T12:41:39.524Z,97200.00
2023-03-05T12:44:19.389Z,97195.00
2023-03-05T12:47:23.433Z,97202.00
2023-03-05T12:49:51.995Z,97198.00
2023-03-05T12:52:32.667Z,97201.00
2023-03-05T12:55:21.297Z,97190.00
2023-03-05T12:57:58.022Z,97195.00
2023-03-05T13:00:33.844Z,97193.00
2023-03-05T13:03:09.524Z,97194.00
2023-03-05T13:05:40.366Z,97188.00
2023-03-05T13:08:23.843Z,97189.00
2023-03-05T13:10:54.902Z,97202.00
2023-03-05T13:13:26.432Z,97190.00
2023-03-05T13:15:55.023Z,97195.00
2023-03-05T13:18:27.502Z,97204.00
2023-03-05T13:21:05.545Z,97187.00
2023-03-05T13:23:36.652Z,97183.00
2023-03-05T13:26:15.243Z,97184.00
2023-03-05T13:28:45.013Z,97182.00
2023-03-05T13:31:22.370Z,97191.00
2023-03-05T13:33:58.319Z,97183.00
2023-03-05T13:36:28.768Z,97184.00
2023-03-05T13:38:59.778Z,97189.00
2023-03-05T13:41:29.617Z,97176.00
2023-03-05T13:44:01.264Z,97176.00
2023-03-05T13:46:33.356Z,97168.00
2023-03-05T13:49:22.598Z,97175.00
2023-03-05T13:51:54.605Z,97165.00
2023-03-05T13:54:27.444Z,97166.00
2023-03-05T13:56:58.891Z,97139.00
2023-03-05T13:59:30.839Z,97145.00
2023-03-05T14:02:01.119Z,97156.00
2023-03-05T14:04:31.750Z,97147.00
2023-03-05T14:07:04.509Z,97144.00
2023-03-05T14:09:48.534Z,97146.00
2023-03-05T14:12:30.361Z,97145.00
2023-03-05T14:14:59.827Z,97132.00
2023-03-05T14:17:43.144Z,97139.00
2023-03-05T14:20:24.873Z,97138.00
2023-03-05T14:22:56.782Z,97128.00
2023-03-05T14:25:38.503Z,97126.00
2023-03-05T14:28:21.971Z,97122.00
2023-03-05T14:30:54.483Z,97115.00
2023-03-05T14:33:25.894Z,97117.00
2023-03-05T14:35:55.619Z,97120.00
2023-03-05T14:38:28.966Z,97107.00
2023-03-05T14:40:58.748Z,97109.00
2023-03-05T14:43:26.896Z,97107.00
2023-03-05T14:45:55.590Z,97104.00
2023-03-05T14:48:23.804Z,97102.00
2023-03-05T14:50:56.804Z,97094.00
2023-03-05T14:53:29.884Z,97114.00
2023-03-05T14:55:59.490Z,97095.00
2023-03-05T14:58:32.284Z,97102.00
2023-03-05T15:01:01.021Z,97099.00
2023-03-05T15:03:29.506Z,97092.00
2023-03-05T15:06:00.223Z,97090.00
2023-03-05T15:08:32.281Z,97084.00
2023-03-05T15:11:03.466Z,97087.00
2023-03-05T15:13:32.318Z,97090.00
2023-03-05T15:16:00.667Z,97080.00
2023-03-05T15:18:29.430Z,97088.00
2023-03-05T15:20:58.377Z,97076.00
2023-03-05T15:23:28.989Z,97078.00
2023-03-05T15:25:57.209Z,97068.00
2023-03-05T15:28:26.788Z,97083.00
2023-03-05T15:30:56.200Z,97064.00
2023-03-05T15:33:27.425Z,97075.00
2023-03-05T15:35:56.024Z,97066.00
2023-03-05T15:38:27.523Z,97062.00
2023-03-05T15:40:55.844Z,97045.00
2023-03-05T15:43:24.188Z,97039.00
2023-03-05T15:45:53.933Z,97038.00
2023-03-05T15:48:22.244Z,97030.00
2023-03-05T15:51:09.025Z,97044.00
2023-03-05T15:53:49.537Z,97032.00
2023-03-05T15:56:43.479Z,97031.00
2023-03-05T15:59:13.497Z,97036.00
2023-03-05T16:01:51.282Z,97011.00
2023-03-05T16:04:21.762Z,97018.00
2023-03-05T16:06:51.818Z,97013.00
2023-03-05T16:09:21.866Z,97027.00
2023-03-05T16:11:51.569Z,97018.00
2023-03-05T16:14:25.523Z,97010.00
2023-03-05T16:16:57.729Z,97019.00
2023-03-05T16:19:28.058Z,96986.00
2023-03-05T16:21:56.493Z,97007.00
2023-03-05T16:24:24.786Z,97014.00
2023-03-05T16:26:53.465Z,96984.00
2023-03-05T16:29:21.828Z,96993.00
2023-03-05T16:31:50.416Z,97000.00
2023-03-05T16:34:21.398Z,97001.00
2023-03-05T16:36:53.470Z,96988.00
2023-03-05T16:39:23.352Z,97005.00
2023-03-05T16:41:52.552Z,96978.00
2023-03-05T16:44:22.353Z,96983.00
2023-03-05T16:46:53.836Z,96989.00
2023-03-05T16:49:24.071Z,96989.00
2023-03-05T16:51:52.578Z,96977.00
2023-03-05T16:54:21.960Z,96974.00
2023-03-05T16:56:50.321Z,96987.00
2023-03-05T16:59:18.543Z,96984.00
2023-03-05T17:01:46.952Z,96997.00
2023-03-05T17:04:15.277Z,96977.00
2023-03-05T17:06:49.172Z,96990.00
2023-03-05T17:09:19.244Z,96997.00
2023-03-05T17:11:47.520Z,96984.00
2023-03-05T17:14:15.715Z,96977.00
2023-03-05T17:16:44.342Z,96988.00
2023-03-05T17:19:12.926Z,96979.00
2023-03-05T17:21:42.555Z,97000.00
2023-03-05T17:24:13.206Z,96978.00
2023-03-05T17:26:41.533Z,96974.00
2023-03-05T17:29:09.826Z,96972.00
2023-03-05T17:31:38.167Z,96962.00
2023-03-05T17:34:06.654Z,96968.00
2023-03-05T17:36:35.049Z,96983.00
2023-03-05T17:39:04.547Z,96970.00
2023-03-05T17:41:34.170Z,96973.00
2023-03-05T17:44:02.416Z,96974.00
2023-03-05T17:46:31.031Z,96972.00
2023-03-05T17:48:59.230Z,96958.00
2023-03-05T17:51:27.500Z,96967.00
2023-03-05T17:53:56.010Z,96958.00
2023-03-05T17:56:26.387Z,96971.00
2023-03-05T17:58:56.320Z,96969.00
2023-03-05T18:01:26.984Z,96971.00
2023-03-05T18:03:55.781Z,96972.00
2023-03-05T18:06:24.778Z,96967.00
2023-03-05T18:08:53.393Z,96976.00
2023-03-05T18:11:21.742Z,96979.00
2023-03-05T18:13:50.224Z,96977.00
2023-03-05T18:16:19.904Z,96963.00
2023-03-05T18:18:48.295Z,96971.00
2023-03-05T18:21:21.627Z,96976.00
2023-03-05T18:23:51.137Z,96968.00
2023-03-05T18:26:19.800Z,96982.00
2023-03-05T18:28:48.112Z,96982.00
2023-03-05T18:31:16.391Z,96969.00
2023-03-05T18:33:46.147Z,96950.00
2023-03-05T18:36:15.026Z,96949.00
2023-03-05T18:38:43.396Z,96950.00
2023-03-05T18:41:21.508Z,96940.00
2023-03-05T18:43:50.478Z,96956.00
2023-03-05T18:46:19.352Z,96954.00
2023-03-05T18:48:49.231Z,96948.00
2023-03-05T18:51:21.587Z,96952.00
2023-03-05T18:53:51.088Z,96952.00
2023-03-05T18:56:19.370Z,96950.00
2023-03-05T18:58:49.541Z,96959.00
2023-03-05T19:01:19.328Z,96955.00
2023-03-05T19:03:50.068Z,96959.00
2023-03-05T19:06:18.694Z,96953.00
2023-03-05T19:08:50.783Z,96939.00
2023-03-05T19:11:24.443Z,96949.00
2023-03-05T19:13:53.102Z,96951.00
2023-03-05T19:16:23.716Z,96945.00
2023-03-05T19:19:03.136Z,96943.00
2023-03-05T19:21:31.812Z,96949.00
2023-03-05T19:24:00.114Z,96941.00
2023-03-05T19:26:28.482Z,96947.00
2023-03-05T19:28:57.174Z,96942.00
2023-03-05T19:31:25.721Z,96918.00
2023-03-05T19:33:55.672Z,96935.00
2023-03-05T19:36:24.498Z,96913.00
2023-03-05T19:38:52.746Z,96920.00
2023-03-05T19:41:21.718Z,96928.00
2023-03-05T19:43:50.489Z,96922.00
2023-03-05T19:46:19.148Z,96924.00
2023-03-05T19:48:47.519Z,96926.00
2023-03-05T19:51:20.666Z,96927.00
2023-03-05T19:53:49.295Z,96932.00
2023-03-05T19:56:21.143Z,96928.00
2023-03-05T19:58:49.552Z,96914.00
2023-03-05T20:01:21.046Z,96915.00
2023-03-05T20:03:53.074Z,96907.00
2023-03-05T20:06:23.605Z,96906.00
2023-03-05T20:08:52.007Z,96902.00
2023-03-05T20:11:21.782Z,96909.00
2023-03-05T20:13:50.688Z,96914.00
2023-03-05T20:16:21.984Z,96911.00
2023-03-05T20:18:52.809Z,96920.00
2023-03-05T20:21:27.390Z,96922.00
2023-03-05T20:23:58.734Z,96902.00
2023-03-05T20:26:28.988Z,96912.00
2023-03-05T20:28:58.462Z,96907.00
2023-03-05T20:31:28.350Z,96908.00
2023-03-05T20:33:57.229Z,96912.00
2023-03-05T20:36:27.029Z,96894.00
2023-03-05T20:38:55.795Z,96898.00
2023-03-05T20:41:24.626Z,96898.00
2023-03-05T20:43:53.777Z,96894.00
2023-03-05T20:46:25.667Z,96897.00
2023-03-05T20:48:57.575Z,96902.00
2023-03-05T20:51:30.740Z,96897.00
2023-03-05T20:54:03.885Z,96895.00
2023-03-05T20:56:34.948Z,96893.00
2023-03-05T20:59:08.510Z,96891.00
2023-03-05T21:01:40.747Z,96883.00
2023-03-05T21:04:09.885Z,96874.00
2023-03-05T21:06:40.429Z,96876.00
2023-03-05T21:09:08.768Z,96873.00
2023-03-05T21:11:38.324Z,96874.00
2023-03-05T21:14:06.651Z,96873.00
2023-03-05T21:16:34.981Z,96870.00
2023-03-05T21:19:03.331Z,96870.00
2023-03-05T21:21:31.710Z,96875.00
2023-03-05T21:24:01.318Z,96857.00
2023-03-05T21:26:29.510Z,96860.00
2023-03-05T21:28:57.979Z,96858.00
2023-03-05T21:31:26.293Z,96865.00
2023-03-05T21:33:54.626Z,96858.00
2023-03-05T21:36:22.908Z,96856.00
2023-03-05T21:38:51.576Z,96849.00
2023-03-05T21:41:21.738Z,96846.00
2023-03-05T21:43:50.395Z,96849.00
2023-03-05T21:46:18.583Z,96846.00
2023-03-05T21:48:46.874Z,96843.00
2023-03-05T21:51:18.593Z,96844.00
2023-03-05T21:53:47.027Z,96845.00
2023-03-05T21:56:23.768Z,96834.00
2023-03-05T21:58:54.992Z,96836.00
2023-03-05T22:01:23.335Z,96830.00
2023-03-05T22:03:51.724Z,96826.00
2023-03-05T22:06:20.893Z,96826.00
2023-03-05T22:08:49.434Z,96817.00
2023-03-05T22:11:20.765Z,96810.00
2023-03-05T22:13:49.356Z,96809.00
2023-03-05T22:16:27.898Z,96825.00
2023-03-05T22:18:56.502Z,96807.00
2023-03-05T22:21:28.025Z,96799.00
2023-03-05T22:23:58.032Z,96807.00
2023-03-05T22:26:34.463Z,96804.00
2023-03-05T22:29:02.871Z,96809.00
2023-03-05T22:31:32.784Z,96806.00
2023-03-05T22:34:01.113Z,96820.00
2023-03-05T22:36:29.366Z,96806.00
2023-03-05T22:38:57.540Z,96793.00
2023-03-05T22:41:25.859Z,96802.00
2023-03-05T22:43:54.232Z,96796.00
2023-03-05T22:46:26.250Z,96796.00
2023-03-05T22:48:56.023Z,96795.00
2023-03-05T22:51:24.327Z,96797.00
2023-03-05T22:53:52.936Z,96785.00
2023-03-05T22:56:22.038Z,96783.00
2023-03-05T22:58:50.257Z,96781.00
2023-03-05T23:01:20.990Z,96779.00
2023-03-05T23:03:54.994Z,96780.00
2023-03-05T23:06:27.644Z,96776.00
2023-03-05T23:08:56.238Z,96781.00
2023-03-05T23:11:24.587Z,96781.00
2023-03-05T23:13:53.042Z,96766.00
2023-03-05T23:16:21.263Z,96764.00
2023-03-05T23:18:49.449Z,96763.00
2023-03-05T23:21:17.672Z,96750.00
2023-03-05T23:23:47.256Z,96752.00
2023-03-05T23:26:15.457Z,96754.00
2023-03-05T23:28:43.702Z,96739.00
2023-03-05T23:31:11.952Z,96748.00
2023-03-05T23:33:40.428Z,96755.00
2023-03-05T23:36:09.669Z,96748.00
2023-03-05T23:38:37.939Z,96752.00
2023-03-05T23:41:09.876Z,96754.00
2023-03-05T23:43:38.233Z,96739.00
2023-03-05T23:46:12.287Z,96734.00
2023-03-05T23:48:42.639Z,96717.00
2023-03-05T23:51:11.976Z,96716.00
2023-03-05T23:53:40.253Z,96714.00
2023-03-05T23:56:13.309Z,96719.00
2023-03-05T23:58:42.712Z,96726.00
